Annalisa P — V2QC8 — position and weather

sailwx.info

Track history (hours):
 
Tides and Currents Weather Stations Pressure Air Temp Water Temp Dewpoint Dewpoint Depression Visibility Wind Speed Wind Dir Waves Ship Positions

Annalisa P

Last reported at 2017-Nov-19 01:45 UTC. Time now 2017-Nov-20 09:58 UTC.
Position N 44°25' E 037°19'.

Length 166 m; draft 8.6 m.

Type: Cargo ship. MMSI: 305313000.

Date/timePositionNaut miles runAvg speedWind from/ knotsBaromVisibWave heightAir tempDewpointWater temp
2017-Nov-19 01:45N 44°25' E 037°19'310.8
2017-Nov-19 01:30N 44°27' E 037°22'510.9
2017-Nov-19 01:00N 44°29' E 037°29'510.9
2017-Nov-19 00:30N 44°31' E 037°36'611.3
2017-Nov-19 00:00N 44°34' E 037°43'611.1
2017-Nov-18 23:31N 44°38' E 037°49'4 8.6
2017-Nov-18 23:00N 44°42' E 037°49'2 3.0
2017-Nov-18 22:29N 44°43' E 037°49'0 0.0
2017-Nov-18 21:59N 44°43' E 037°49'0 0.0
2017-Nov-18 21:29N 44°43' E 037°49'0 0.0
2017-Nov-18 20:59N 44°43' E 037°49'0 0.0
2017-Nov-18 20:29N 44°43' E 037°49'0 0.0
2017-Nov-18 19:59N 44°43' E 037°49'0 0.0
2017-Nov-18 19:29N 44°43' E 037°49'0 0.0
2017-Nov-18 18:59N 44°43' E 037°49'0 0.0
2017-Nov-18 18:29N 44°43' E 037°49'0 0.0
2017-Nov-18 17:59N 44°43' E 037°49'0 0.0
2017-Nov-18 17:29N 44°43' E 037°49'0 0.0
2017-Nov-18 16:59N 44°43' E 037°49'0 0.0
2017-Nov-18 16:29N 44°43' E 037°49'0 0.0
2017-Nov-18 15:59N 44°43' E 037°49'0 0.0
2017-Nov-18 15:29N 44°43' E 037°49'0 0.0
2017-Nov-18 14:59N 44°43' E 037°49'0 0.0
2017-Nov-18 14:29N 44°43' E 037°49'0 0.0
2017-Nov-18 13:59N 44°43' E 037°49'0 0.0
2017-Nov-18 13:29N 44°43' E 037°49'0 0.0
2017-Nov-18 12:59N 44°43' E 037°49'0 0.0
2017-Nov-18 12:29N 44°43' E 037°49'0 0.0
2017-Nov-18 11:59N 44°43' E 037°49'0 0.0
2017-Nov-18 11:29N 44°43' E 037°49'0 0.0
2017-Nov-18 10:59N 44°43' E 037°49'0 0.0
2017-Nov-18 10:29N 44°43' E 037°49'0 0.0
2017-Nov-18 09:59N 44°43' E 037°49'0 0.0
2017-Nov-18 09:23N 44°43' E 037°49'0 0.0
2017-Nov-18 08:59N 44°43' E 037°49'0 0.0
2017-Nov-18 08:29N 44°43' E 037°49'0 0.0
2017-Nov-18 07:59N 44°43' E 037°49'0 0.0
2017-Nov-18 07:29N 44°43' E 037°49'0 0.0
2017-Nov-18 06:56N 44°43' E 037°49'0 0.0
2017-Nov-18 06:29N 44°43' E 037°49'0 0.0
2017-Nov-18 05:59N 44°43' E 037°49'0 0.0
2017-Nov-18 05:29N 44°43' E 037°49'0 0.0
2017-Nov-18 04:59N 44°43' E 037°49'0 0.0
2017-Nov-18 04:29N 44°43' E 037°49'0 0.0
2017-Nov-18 03:59N 44°43' E 037°49'0 0.0
2017-Nov-18 03:29N 44°43' E 037°49'0 0.0
2017-Nov-18 02:59N 44°43' E 037°49'0 0.0
2017-Nov-18 02:29N 44°43' E 037°49'0 0.0
2017-Nov-18 01:59N 44°43' E 037°49'0 0.0
2017-Nov-18 01:26N 44°43' E 037°49'0 0.0
2017-Nov-18 00:59N 44°43' E 037°49'0 0.0
2017-Nov-18 00:30N 44°43' E 037°49'0 0.0
2017-Nov-18 00:00N 44°43' E 037°49'0 0.0
2017-Nov-17 23:30N 44°43' E 037°49'0 0.0
2017-Nov-17 23:00N 44°43' E 037°49'0 0.0
2017-Nov-17 22:30N 44°43' E 037°49'0 0.0
2017-Nov-17 22:00N 44°43' E 037°49'0 0.0
2017-Nov-17 21:30N 44°43' E 037°49'0 0.0
2017-Nov-17 21:00N 44°43' E 037°49'0 0.0
2017-Nov-17 20:30N 44°43' E 037°49'0 0.0
2017-Nov-17 20:00N 44°43' E 037°49'0 0.0
2017-Nov-17 19:30N 44°43' E 037°49'0 0.6
2017-Nov-17 19:00N 44°43' E 037°49'2 4.2
2017-Nov-17 18:30N 44°41' E 037°50'2 4.9
2017-Nov-17 18:00N 44°39' E 037°51'2 4.4
2017-Nov-17 17:30N 44°37' E 037°51'2 3.0
2017-Nov-17 17:00N 44°35' E 037°50'713.9
2017-Nov-17 16:31N 44°30' E 037°44'815.9
2017-Nov-17 16:01N 44°27' E 037°33'713.1
2017-Nov-17 15:31N 44°25' E 037°25'4 1.9
2017-Nov-17 13:14N 44°24' E 037°31'1 1.9
2017-Nov-17 12:56N 44°24' E 037°31'1 1.9
2017-Nov-17 12:26N 44°24' E 037°33'2 1.9
2017-Nov-17 11:25N 44°24' E 037°35'1 1.8
2017-Nov-17 10:59N 44°24' E 037°36'1 1.8
2017-Nov-17 10:29N 44°24' E 037°38'0 0.9
2017-Nov-17 10:00N 44°24' E 037°38'3 5.9
2017-Nov-17 09:30N 44°27' E 037°38'3 5.6
2017-Nov-17 09:00N 44°26' E 037°34'5 9.8
2017-Nov-17 08:30N 44°24' E 037°28'5 9.8
2017-Nov-17 08:01N 44°22' E 037°22'5 9.7
2017-Nov-17 07:30N 44°19' E 037°16'5 9.8
2017-Nov-17 06:57N 44°17' E 037°09'41510.0
2017-Nov-15 13:19N 40°51' E 029°00'2 2.9
2017-Nov-15 12:38N 40°50' E 028°58'0 0.8
2017-Nov-15 12:27N 40°51' E 028°58'0 0.7
2017-Nov-15 12:00N 40°51' E 028°58'0 0.5
2017-Nov-15 11:30N 40°51' E 028°59'0 0.2
2017-Nov-15 11:00N 40°51' E 028°58'1 2.8
2017-Nov-15 10:30N 40°52' E 028°57'23611.4
2017-Nov-14 13:49N 37°47' E 025°46'514.7
2017-Nov-14 13:30N 37°43' E 025°46'814.7
2017-Nov-14 12:55N 37°35' E 025°50'615.2
2017-Nov-14 12:30N 37°30' E 025°54'  
Track history (hours):
 
Tides and Currents Weather Stations Pressure Air Temp Water Temp Dewpoint Dewpoint Depression Visibility Wind Speed Wind Dir Waves Ship Positions

Annalisa P

Last reported at 2017-Nov-19 01:45 UTC. Time now 2017-Nov-20 09:58 UTC.
Position N 44°25' E 037°19'.

Length 166 m; draft 8.6 m.

Type: Cargo ship. MMSI: 305313000.

Date/timePositionNaut miles runAvg speedWind from/ knotsBaromVisibWave heightAir tempDewpointWater temp
2017-Nov-19 01:45N 44°25' E 037°19'310.8
2017-Nov-19 01:30N 44°27' E 037°22'510.9
2017-Nov-19 01:00N 44°29' E 037°29'510.9
2017-Nov-19 00:30N 44°31' E 037°36'611.3
2017-Nov-19 00:00N 44°34' E 037°43'611.1
2017-Nov-18 23:31N 44°38' E 037°49'4 8.6
2017-Nov-18 23:00N 44°42' E 037°49'2 3.0
2017-Nov-18 22:29N 44°43' E 037°49'0 0.0
2017-Nov-18 21:59N 44°43' E 037°49'0 0.0
2017-Nov-18 21:29N 44°43' E 037°49'0 0.0
2017-Nov-18 20:59N 44°43' E 037°49'0 0.0
2017-Nov-18 20:29N 44°43' E 037°49'0 0.0
2017-Nov-18 19:59N 44°43' E 037°49'0 0.0
2017-Nov-18 19:29N 44°43' E 037°49'0 0.0
2017-Nov-18 18:59N 44°43' E 037°49'0 0.0
2017-Nov-18 18:29N 44°43' E 037°49'0 0.0
2017-Nov-18 17:59N 44°43' E 037°49'0 0.0
2017-Nov-18 17:29N 44°43' E 037°49'0 0.0
2017-Nov-18 16:59N 44°43' E 037°49'0 0.0
2017-Nov-18 16:29N 44°43' E 037°49'0 0.0
2017-Nov-18 15:59N 44°43' E 037°49'0 0.0
2017-Nov-18 15:29N 44°43' E 037°49'0 0.0
2017-Nov-18 14:59N 44°43' E 037°49'0 0.0
2017-Nov-18 14:29N 44°43' E 037°49'0 0.0
2017-Nov-18 13:59N 44°43' E 037°49'0 0.0
2017-Nov-18 13:29N 44°43' E 037°49'0 0.0
2017-Nov-18 12:59N 44°43' E 037°49'0 0.0
2017-Nov-18 12:29N 44°43' E 037°49'0 0.0
2017-Nov-18 11:59N 44°43' E 037°49'0 0.0
2017-Nov-18 11:29N 44°43' E 037°49'0 0.0
2017-Nov-18 10:59N 44°43' E 037°49'0 0.0
2017-Nov-18 10:29N 44°43' E 037°49'0 0.0
2017-Nov-18 09:59N 44°43' E 037°49'0 0.0
2017-Nov-18 09:23N 44°43' E 037°49'0 0.0
2017-Nov-18 08:59N 44°43' E 037°49'0 0.0
2017-Nov-18 08:29N 44°43' E 037°49'0 0.0
2017-Nov-18 07:59N 44°43' E 037°49'0 0.0
2017-Nov-18 07:29N 44°43' E 037°49'0 0.0
2017-Nov-18 06:56N 44°43' E 037°49'0 0.0
2017-Nov-18 06:29N 44°43' E 037°49'0 0.0
2017-Nov-18 05:59N 44°43' E 037°49'0 0.0
2017-Nov-18 05:29N 44°43' E 037°49'0 0.0
2017-Nov-18 04:59N 44°43' E 037°49'0 0.0
2017-Nov-18 04:29N 44°43' E 037°49'0 0.0
2017-Nov-18 03:59N 44°43' E 037°49'0 0.0
2017-Nov-18 03:29N 44°43' E 037°49'0 0.0
2017-Nov-18 02:59N 44°43' E 037°49'0 0.0
2017-Nov-18 02:29N 44°43' E 037°49'0 0.0
2017-Nov-18 01:59N 44°43' E 037°49'0 0.0
2017-Nov-18 01:26N 44°43' E 037°49'0 0.0
2017-Nov-18 00:59N 44°43' E 037°49'0 0.0
2017-Nov-18 00:30N 44°43' E 037°49'0 0.0
2017-Nov-18 00:00N 44°43' E 037°49'0 0.0
2017-Nov-17 23:30N 44°43' E 037°49'0 0.0
2017-Nov-17 23:00N 44°43' E 037°49'0 0.0
2017-Nov-17 22:30N 44°43' E 037°49'0 0.0
2017-Nov-17 22:00N 44°43' E 037°49'0 0.0
2017-Nov-17 21:30N 44°43' E 037°49'0 0.0
2017-Nov-17 21:00N 44°43' E 037°49'0 0.0
2017-Nov-17 20:30N 44°43' E 037°49'0 0.0
2017-Nov-17 20:00N 44°43' E 037°49'0 0.0
2017-Nov-17 19:30N 44°43' E 037°49'0 0.6
2017-Nov-17 19:00N 44°43' E 037°49'2 4.2
2017-Nov-17 18:30N 44°41' E 037°50'2 4.9
2017-Nov-17 18:00N 44°39' E 037°51'2 4.4
2017-Nov-17 17:30N 44°37' E 037°51'2 3.0
2017-Nov-17 17:00N 44°35' E 037°50'713.9
2017-Nov-17 16:31N 44°30' E 037°44'815.9
2017-Nov-17 16:01N 44°27' E 037°33'713.1
2017-Nov-17 15:31N 44°25' E 037°25'4 1.9
2017-Nov-17 13:14N 44°24' E 037°31'1 1.9
2017-Nov-17 12:56N 44°24' E 037°31'1 1.9
2017-Nov-17 12:26N 44°24' E 037°33'2 1.9
2017-Nov-17 11:25N 44°24' E 037°35'1 1.8
2017-Nov-17 10:59N 44°24' E 037°36'1 1.8
2017-Nov-17 10:29N 44°24' E 037°38'0 0.9
2017-Nov-17 10:00N 44°24' E 037°38'3 5.9
2017-Nov-17 09:30N 44°27' E 037°38'3 5.6
2017-Nov-17 09:00N 44°26' E 037°34'5 9.8
2017-Nov-17 08:30N 44°24' E 037°28'5 9.8
2017-Nov-17 08:01N 44°22' E 037°22'5 9.7
2017-Nov-17 07:30N 44°19' E 037°16'5 9.8
2017-Nov-17 06:57N 44°17' E 037°09'41510.0
2017-Nov-15 13:19N 40°51' E 029°00'2 2.9
2017-Nov-15 12:38N 40°50' E 028°58'0 0.8
2017-Nov-15 12:27N 40°51' E 028°58'0 0.7
2017-Nov-15 12:00N 40°51' E 028°58'0 0.5
2017-Nov-15 11:30N 40°51' E 028°59'0 0.2
2017-Nov-15 11:00N 40°51' E 028°58'1 2.8
2017-Nov-15 10:30N 40°52' E 028°57'23611.4
2017-Nov-14 13:49N 37°47' E 025°46'514.7
2017-Nov-14 13:30N 37°43' E 025°46'814.7
2017-Nov-14 12:55N 37°35' E 025°50'615.2
2017-Nov-14 12:30N 37°30' E 025°54'  

Dump ship's entire track history